createdAt,value
2023-04-22T00:01:00.024Z,7.73
2023-04-22T00:03:24.853Z,7.03
2023-04-22T00:05:47.179Z,6.23
2023-04-22T00:08:09.223Z,6.57
2023-04-22T00:10:31.021Z,6.67
2023-04-22T00:12:52.846Z,6.70
2023-04-22T00:15:14.704Z,6.27
2023-04-22T00:17:37.089Z,6.23
2023-04-22T00:19:59.308Z,5.90
2023-04-22T00:22:21.200Z,6.70
2023-04-22T00:24:43.156Z,6.80
2023-04-22T00:27:04.924Z,6.70
2023-04-22T00:29:27.008Z,7.10
2023-04-22T00:31:48.902Z,7.27
2023-04-22T00:34:11.645Z,6.70
2023-04-22T00:36:33.449Z,6.60
2023-04-22T00:38:55.270Z,6.23
2023-04-22T00:41:18.286Z,6.60
2023-04-22T00:43:40.090Z,6.77
2023-04-22T00:46:02.411Z,6.60
2023-04-22T00:48:28.673Z,6.60
2023-04-22T00:50:51.197Z,6.40
2023-04-22T00:53:12.962Z,5.77
2023-04-22T00:55:35.315Z,6.10
2023-04-22T00:58:02.040Z,6.30
2023-04-22T01:00:27.436Z,6.70
2023-04-22T01:02:49.736Z,6.97
2023-04-22T01:05:11.706Z,6.63
2023-04-22T01:07:34.380Z,6.60
2023-04-22T01:09:57.398Z,6.80
2023-04-22T01:12:19.174Z,6.93
2023-04-22T01:14:41.544Z,7.30
2023-04-22T01:17:03.655Z,8.37
2023-04-22T01:19:26.455Z,8.20
2023-04-22T01:21:54.381Z,9.00
2023-04-22T01:24:16.856Z,8.00
2023-04-22T01:26:39.818Z,7.43
2023-04-22T01:29:03.242Z,7.73
2023-04-22T01:31:25.236Z,6.97
2023-04-22T01:33:48.463Z,7.13
2023-04-22T01:36:13.148Z,7.50
2023-04-22T01:38:35.329Z,6.60
2023-04-22T01:41:02.372Z,6.93
2023-04-22T01:43:25.321Z,6.70
2023-04-22T01:45:47.164Z,7.13
2023-04-22T01:48:11.203Z,7.40
2023-04-22T01:50:33.182Z,7.17
2023-04-22T01:52:55.292Z,7.47
2023-04-22T01:55:17.688Z,7.77
2023-04-22T01:57:39.901Z,7.40
2023-04-22T02:00:01.974Z,7.23
2023-04-22T02:02:34.572Z,7.10
2023-04-22T02:04:56.715Z,7.20
2023-04-22T02:07:18.502Z,7.67
2023-04-22T02:09:40.535Z,7.40
2023-04-22T02:12:02.643Z,7.57
2023-04-22T02:14:24.546Z,7.90
2023-04-22T02:16:46.342Z,8.47
2023-04-22T02:19:08.228Z,7.83
2023-04-22T02:21:32.584Z,7.43
2023-04-22T02:23:54.610Z,7.47
2023-04-22T02:26:17.369Z,7.13
2023-04-22T02:28:39.252Z,8.20
2023-04-22T02:31:01.623Z,7.90
2023-04-22T02:33:23.775Z,7.33
2023-04-22T02:35:48.488Z,7.20
2023-04-22T02:38:13.463Z,8.00
2023-04-22T02:40:35.284Z,7.73
2023-04-22T02:42:57.164Z,7.90
2023-04-22T02:45:19.140Z,8.40
2023-04-22T02:47:40.892Z,8.33
2023-04-22T02:50:02.817Z,8.00
2023-04-22T02:52:24.611Z,8.17
2023-04-22T02:54:46.527Z,8.23
2023-04-22T02:57:08.726Z,7.50
2023-04-22T02:59:31.893Z,8.10
2023-04-22T03:01:54.199Z,8.55
2023-04-22T03:04:39.177Z,8.70
2023-04-22T03:07:01.015Z,9.43
2023-04-22T03:09:22.791Z,9.67
2023-04-22T03:11:44.918Z,9.70
2023-04-22T03:14:06.710Z,9.50
2023-04-22T03:16:28.523Z,8.77
2023-04-22T03:18:52.811Z,9.15
2023-04-22T03:21:15.282Z,10.37
2023-04-22T03:23:37.033Z,10.17
2023-04-22T03:26:00.213Z,11.47
2023-04-22T03:28:22.821Z,11.67
2023-04-22T03:30:45.061Z,13.40
2023-04-22T03:33:07.039Z,13.70
2023-04-22T03:35:35.539Z,12.97
2023-04-22T03:37:57.351Z,14.57
2023-04-22T03:40:24.549Z,13.77
2023-04-22T03:42:46.468Z,14.23
2023-04-22T03:45:09.025Z,14.80
2023-04-22T03:47:35.184Z,14.33
2023-04-22T03:50:05.959Z,15.33
2023-04-22T03:52:29.066Z,15.88
2023-04-22T03:54:54.268Z,16.40
2023-04-22T03:57:16.255Z,16.73
2023-04-22T03:59:38.447Z,18.77
2023-04-22T04:02:01.142Z,16.60
2023-04-22T04:04:23.886Z,16.13
2023-04-22T04:06:51.231Z,17.50
2023-04-22T04:09:14.680Z,16.67
2023-04-22T04:11:36.554Z,16.73
2023-04-22T04:13:59.125Z,17.80
2023-04-22T04:16:30.122Z,17.47
2023-04-22T04:18:59.121Z,20.00
2023-04-22T04:21:21.805Z,18.67
2023-04-22T04:23:47.854Z,18.50
2023-04-22T04:26:11.015Z,19.23
2023-04-22T04:28:36.283Z,18.37
2023-04-22T04:30:59.529Z,18.60
2023-04-22T04:33:21.444Z,19.43
2023-04-22T04:35:44.904Z,19.10
2023-04-22T04:38:11.958Z,19.80
2023-04-22T04:40:36.081Z,19.20
2023-04-22T04:43:08.196Z,18.87
2023-04-22T04:45:48.660Z,20.67
2023-04-22T04:48:19.802Z,19.90
2023-04-22T04:50:47.388Z,20.37
2023-04-22T04:53:10.832Z,21.87
2023-04-22T04:55:36.219Z,21.03
2023-04-22T04:58:03.054Z,20.27
2023-04-22T05:00:24.808Z,20.77
2023-04-22T05:02:47.189Z,19.63
2023-04-22T05:05:09.698Z,21.20
2023-04-22T05:07:32.875Z,20.75
2023-04-22T05:09:54.819Z,20.63
2023-04-22T05:12:17.213Z,19.60
2023-04-22T05:14:39.132Z,21.07
2023-04-22T05:17:03.103Z,20.03
2023-04-22T05:19:25.314Z,21.40
2023-04-22T05:21:49.772Z,22.00
2023-04-22T05:24:12.646Z,21.63
2023-04-22T05:26:34.534Z,18.50
2023-04-22T05:29:03.149Z,20.63
2023-04-22T05:31:25.366Z,19.83
2023-04-22T05:33:47.173Z,21.23
2023-04-22T05:36:09.595Z,21.93
2023-04-22T05:38:32.131Z,20.67
2023-04-22T05:40:55.106Z,20.90
2023-04-22T05:43:16.920Z,20.70
2023-04-22T05:45:44.690Z,22.37
2023-04-22T05:48:08.973Z,22.33
2023-04-22T05:50:36.678Z,21.37
2023-04-22T05:53:03.237Z,23.23
2023-04-22T05:55:25.098Z,23.77
2023-04-22T05:57:47.689Z,24.67
2023-04-22T06:00:35.742Z,23.53
2023-04-22T06:03:33.599Z,23.70
2023-04-22T06:05:57.716Z,24.52
2023-04-22T06:08:19.681Z,24.67
2023-04-22T06:10:45.844Z,24.53
2023-04-22T06:13:07.905Z,24.00
2023-04-22T06:15:30.317Z,26.53
2023-04-22T06:17:54.660Z,28.20
2023-04-22T06:20:16.777Z,27.03
2023-04-22T06:22:40.510Z,27.07
2023-04-22T06:25:04.537Z,25.02
2023-04-22T06:27:26.988Z,25.40
2023-04-22T06:29:48.989Z,25.13
2023-04-22T06:32:11.307Z,26.00
2023-04-22T06:34:34.130Z,25.90
2023-04-22T06:36:57.169Z,25.87
2023-04-22T06:39:19.229Z,24.63
2023-04-22T06:41:49.216Z,24.40
2023-04-22T06:44:26.045Z,24.00
2023-04-22T06:47:06.814Z,23.20
2023-04-22T06:49:47.553Z,22.30
2023-04-22T06:52:16.074Z,21.77
2023-04-22T06:54:38.768Z,20.47
2023-04-22T06:57:01.684Z,20.37
2023-04-22T06:59:24.619Z,20.02
2023-04-22T07:01:46.681Z,20.90
2023-04-22T07:04:09.307Z,20.20
2023-04-22T07:06:31.370Z,19.37
2023-04-22T07:08:54.094Z,20.30
2023-04-22T07:11:16.668Z,19.63
2023-04-22T07:13:48.686Z,19.27
2023-04-22T07:16:11.293Z,19.63
2023-04-22T07:18:35.664Z,18.10
2023-04-22T07:20:58.486Z,18.10
2023-04-22T07:23:20.950Z,18.37
2023-04-22T07:25:43.391Z,18.47
2023-04-22T07:28:05.432Z,16.63
2023-04-22T07:30:28.081Z,16.40
2023-04-22T07:32:49.945Z,16.57
2023-04-22T07:35:12.308Z,16.67
2023-04-22T07:37:34.528Z,16.13
2023-04-22T07:39:57.076Z,16.87
2023-04-22T07:42:20.586Z,15.50
2023-04-22T07:44:43.067Z,15.52
2023-04-22T07:47:07.927Z,14.57
2023-04-22T07:49:30.905Z,14.23
2023-04-22T07:51:53.770Z,14.63
2023-04-22T07:54:16.104Z,14.33
2023-04-22T07:56:38.260Z,14.53
2023-04-22T07:59:00.283Z,15.33
2023-04-22T08:01:22.124Z,14.10
2023-04-22T08:03:44.929Z,14.23
2023-04-22T08:06:08.580Z,13.53
2023-04-22T08:08:30.744Z,14.90
2023-04-22T08:10:53.038Z,13.47
2023-04-22T08:13:17.135Z,13.50
2023-04-22T08:15:40.318Z,12.80
2023-04-22T08:18:02.388Z,12.43
2023-04-22T08:20:25.788Z,13.07
2023-04-22T08:22:48.687Z,13.20
2023-04-22T08:25:10.866Z,12.87
2023-04-22T08:27:32.963Z,13.07
2023-04-22T08:29:55.034Z,13.23
2023-04-22T08:32:19.604Z,13.20
2023-04-22T08:37:04.397Z,13.07
2023-04-22T08:39:26.323Z,13.27
2023-04-22T08:41:50.616Z,11.97
2023-04-22T08:44:14.646Z,12.48
2023-04-22T08:46:37.387Z,12.80
2023-04-22T08:49:04.076Z,12.10
2023-04-22T08:51:26.864Z,11.83
2023-04-22T08:53:48.985Z,12.07
2023-04-22T08:56:13.506Z,11.43
2023-04-22T09:01:01.231Z,11.00
2023-04-22T09:03:24.546Z,12.20
2023-04-22T09:05:52.487Z,12.33
2023-04-22T09:08:14.805Z,10.80
2023-04-22T09:10:38.823Z,11.57
2023-04-22T09:13:03.685Z,10.48
2023-04-22T09:17:52.797Z,9.60
2023-04-22T09:20:16.265Z,10.18
2023-04-22T09:22:49.762Z,9.18
2023-04-22T09:25:27.620Z,9.77
2023-04-22T09:27:56.799Z,9.93
2023-04-22T09:30:34.586Z,9.98
2023-04-22T09:33:07.794Z,10.07
2023-04-22T09:35:36.541Z,9.70
2023-04-22T09:38:01.997Z,9.40
2023-04-22T09:40:25.425Z,9.25
2023-04-22T09:42:57.135Z,8.77
2023-04-22T09:45:30.614Z,8.20
2023-04-22T09:47:55.850Z,7.80
2023-04-22T09:50:21.400Z,7.88
2023-04-22T09:52:43.316Z,7.57
2023-04-22T09:55:09.553Z,7.03
2023-04-22T09:57:31.757Z,7.25
2023-04-22T09:59:56.284Z,7.20
2023-04-22T10:02:18.591Z,7.95
2023-04-22T10:04:41.138Z,8.02
2023-04-22T10:07:03.173Z,8.13
2023-04-22T10:09:26.013Z,7.82
2023-04-22T10:11:51.532Z,7.65
2023-04-22T10:14:16.385Z,8.60
2023-04-22T10:16:40.823Z,7.88
2023-04-22T10:19:07.476Z,7.32
2023-04-22T10:21:32.724Z,7.18
2023-04-22T10:23:55.162Z,6.60
2023-04-22T10:26:49.315Z,6.20
2023-04-22T10:29:19.134Z,6.63
2023-04-22T10:31:41.474Z,6.25
2023-04-22T10:34:15.575Z,6.25
2023-04-22T10:37:00.267Z,6.53
2023-04-22T10:39:24.657Z,6.38
2023-04-22T10:42:11.618Z,6.18
2023-04-22T10:44:52.616Z,7.07
2023-04-22T10:47:30.005Z,6.55
2023-04-22T10:49:52.971Z,7.10
2023-04-22T10:52:29.656Z,6.82
2023-04-22T10:54:54.946Z,7.22
2023-04-22T10:57:22.836Z,7.55
2023-04-22T10:59:58.426Z,7.97
2023-04-22T11:02:23.803Z,8.02
2023-04-22T11:04:46.735Z,8.23
2023-04-22T11:07:22.926Z,8.20
2023-04-22T11:10:05.767Z,7.70
2023-04-22T11:12:42.288Z,7.65
2023-04-22T11:15:20.046Z,8.25
2023-04-22T11:17:51.144Z,7.82
2023-04-22T11:20:19.368Z,7.30
2023-04-22T11:22:46.234Z,7.63
2023-04-22T11:25:12.748Z,8.50
2023-04-22T11:27:34.906Z,9.00
2023-04-22T11:30:15.044Z,8.57
2023-04-22T11:32:41.233Z,9.02
2023-04-22T11:35:07.712Z,9.38
2023-04-22T11:37:29.921Z,8.90
2023-04-22T11:40:13.638Z,8.98
2023-04-22T11:42:39.627Z,9.00
2023-04-22T11:45:01.709Z,8.55
2023-04-22T11:47:23.602Z,8.90
2023-04-22T11:50:01.987Z,8.43
2023-04-22T11:52:24.012Z,7.65
2023-04-22T11:54:46.425Z,7.70
2023-04-22T11:57:11.749Z,8.20
2023-04-22T11:59:34.807Z,7.57
2023-04-22T12:01:57.137Z,8.02
2023-04-22T12:04:22.700Z,7.32
2023-04-22T12:06:47.055Z,7.38
2023-04-22T12:09:09.684Z,7.60
2023-04-22T12:11:32.175Z,8.10
2023-04-22T12:13:54.350Z,7.90
2023-04-22T12:16:20.104Z,8.43
2023-04-22T12:18:54.457Z,7.75
2023-04-22T12:21:28.399Z,8.15
2023-04-22T12:23:55.930Z,8.52
2023-04-22T12:26:23.661Z,8.82
2023-04-22T12:28:48.250Z,9.00
2023-04-22T12:31:11.834Z,8.00
2023-04-22T12:33:34.969Z,8.90
2023-04-22T12:35:57.174Z,8.25
2023-04-22T12:38:19.856Z,9.10
2023-04-22T12:40:42.583Z,8.50
2023-04-22T12:43:06.257Z,8.82
2023-04-22T12:45:28.240Z,9.10
2023-04-22T12:47:54.112Z,8.15
2023-04-22T12:50:16.703Z,7.60
2023-04-22T12:52:39.539Z,8.23
2023-04-22T12:55:03.167Z,8.07
2023-04-22T12:57:26.996Z,8.55
2023-04-22T12:59:50.294Z,8.43
2023-04-22T13:02:13.955Z,8.85
2023-04-22T13:04:36.891Z,8.10
2023-04-22T13:07:00.710Z,8.17
2023-04-22T13:09:26.279Z,8.35
2023-04-22T13:11:49.602Z,9.07
2023-04-22T13:14:13.070Z,9.17
2023-04-22T13:16:36.460Z,8.83
2023-04-22T13:18:59.141Z,9.50
2023-04-22T13:21:21.485Z,9.10
2023-04-22T13:23:44.406Z,9.73
2023-04-22T13:26:07.250Z,10.23
2023-04-22T13:28:29.529Z,10.43
2023-04-22T13:30:52.147Z,10.37
2023-04-22T13:33:14.154Z,11.03
2023-04-22T13:35:37.423Z,10.83
2023-04-22T13:37:59.611Z,11.00
2023-04-22T13:40:22.172Z,11.70
2023-04-22T13:42:44.513Z,11.07
2023-04-22T13:45:08.482Z,11.23
2023-04-22T13:47:31.188Z,11.85
2023-04-22T13:49:53.021Z,11.83
2023-04-22T13:52:14.884Z,12.10
2023-04-22T13:54:36.636Z,13.30
2023-04-22T13:56:58.632Z,12.13
2023-04-22T13:59:20.603Z,12.63
2023-04-22T14:01:42.602Z,12.70
2023-04-22T14:04:05.207Z,12.37
2023-04-22T14:06:27.404Z,11.67
2023-04-22T14:08:49.443Z,13.63
2023-04-22T14:11:12.577Z,12.43
2023-04-22T14:13:35.597Z,13.17
2023-04-22T14:15:57.897Z,12.67
2023-04-22T14:18:20.450Z,13.27
2023-04-22T14:20:43.139Z,13.60
2023-04-22T14:23:07.724Z,13.07
2023-04-22T14:27:51.433Z,12.67
2023-04-22T14:30:14.663Z,12.23
2023-04-22T14:32:36.834Z,13.30
2023-04-22T14:34:58.805Z,12.87
2023-04-22T14:37:21.873Z,13.37
2023-04-22T14:39:44.537Z,13.57
2023-04-22T14:42:06.569Z,13.33
2023-04-22T14:44:28.589Z,13.60
2023-04-22T14:46:50.348Z,13.87
2023-04-22T14:49:12.271Z,13.17
2023-04-22T14:51:36.960Z,12.03
2023-04-22T14:53:59.135Z,12.60
2023-04-22T14:56:21.368Z,13.20
2023-04-22T14:58:43.474Z,12.27
2023-04-22T15:01:07.546Z,12.30
2023-04-22T15:03:30.142Z,13.43
2023-04-22T15:05:52.546Z,11.97
2023-04-22T15:08:14.372Z,12.67
2023-04-22T15:10:36.259Z,12.77
2023-04-22T15:12:58.418Z,13.27
2023-04-22T15:15:20.709Z,12.40
2023-04-22T15:17:43.635Z,11.87
2023-04-22T15:20:08.713Z,12.30
2023-04-22T15:22:32.119Z,9.83
2023-04-22T15:24:53.912Z,8.83
2023-04-22T15:27:15.729Z,8.00
2023-04-22T15:29:37.985Z,8.07
2023-04-22T15:32:00.267Z,8.23
2023-04-22T15:34:23.436Z,8.00
2023-04-22T15:36:46.442Z,7.60
2023-04-22T15:39:10.691Z,6.97
2023-04-22T15:41:36.431Z,7.88
2023-04-22T15:43:58.532Z,6.57
2023-04-22T15:46:21.427Z,6.40
2023-04-22T15:48:47.219Z,5.63
2023-04-22T15:51:09.086Z,5.57
2023-04-22T15:53:30.941Z,5.60
2023-04-22T15:55:52.975Z,5.30
2023-04-22T15:58:14.770Z,5.37
2023-04-22T16:00:37.193Z,4.93
2023-04-22T16:02:59.326Z,5.20
2023-04-22T16:05:25.194Z,5.20
2023-04-22T16:07:47.172Z,4.67
2023-04-22T16:10:10.380Z,4.57
2023-04-22T16:12:34.071Z,4.40
2023-04-22T16:14:56.243Z,4.72
2023-04-22T16:17:18.275Z,4.77
2023-04-22T16:19:40.444Z,4.83
2023-04-22T16:22:02.440Z,4.80
2023-04-22T16:24:25.277Z,4.80
2023-04-22T16:26:47.149Z,5.07
2023-04-22T16:29:09.048Z,5.00
2023-04-22T16:31:31.001Z,4.63
2023-04-22T16:33:52.801Z,4.90
2023-04-22T16:36:14.675Z,4.90
2023-04-22T16:38:36.522Z,4.53
2023-04-22T16:40:58.567Z,4.83
2023-04-22T16:43:21.042Z,4.67
2023-04-22T16:45:42.958Z,4.70
2023-04-22T16:48:04.952Z,4.90
2023-04-22T16:50:26.952Z,4.50
2023-04-22T16:52:48.820Z,4.63
2023-04-22T16:55:11.090Z,4.50
2023-04-22T16:57:33.465Z,4.40
2023-04-22T16:59:55.435Z,4.50
2023-04-22T17:02:17.344Z,5.27
2023-04-22T17:04:39.407Z,4.73
2023-04-22T17:07:02.357Z,4.83
2023-04-22T17:09:24.281Z,6.10
2023-04-22T17:11:46.297Z,8.50
2023-04-22T17:14:08.209Z,9.43
2023-04-22T17:16:30.121Z,9.57
2023-04-22T17:18:52.385Z,11.57
2023-04-22T17:21:15.031Z,12.40
2023-04-22T17:23:36.842Z,12.10
2023-04-22T17:25:59.947Z,13.33
2023-04-22T17:28:22.138Z,14.00
2023-04-22T17:30:44.061Z,15.47
2023-04-22T17:33:06.172Z,15.10
2023-04-22T17:35:28.287Z,15.83
2023-04-22T17:37:51.197Z,16.60
2023-04-22T17:40:13.894Z,17.23
2023-04-22T17:42:45.982Z,18.10
2023-04-22T17:45:09.701Z,17.70
2023-04-22T17:47:31.593Z,19.50
2023-04-22T17:49:54.026Z,18.90
2023-04-22T17:52:16.034Z,18.50
2023-04-22T17:54:38.036Z,18.67
2023-04-22T17:56:59.859Z,17.37
2023-04-22T17:59:21.590Z,16.77
2023-04-22T18:01:43.455Z,17.97
2023-04-22T18:04:06.022Z,17.97
2023-04-22T18:06:29.046Z,17.93
2023-04-22T18:08:51.848Z,18.95
2023-04-22T18:11:14.525Z,19.57
2023-04-22T18:13:36.807Z,19.03
2023-04-22T18:16:00.264Z,20.65
2023-04-22T18:18:22.027Z,20.03
2023-04-22T18:20:45.719Z,19.50
2023-04-22T18:23:07.842Z,19.70
2023-04-22T18:25:29.947Z,20.23
2023-04-22T18:27:55.673Z,19.53
2023-04-22T18:30:17.981Z,21.70
2023-04-22T18:32:39.917Z,20.13
2023-04-22T18:35:01.923Z,20.03
2023-04-22T18:37:24.690Z,20.47
2023-04-22T18:39:47.480Z,20.47
2023-04-22T18:42:09.358Z,20.80
2023-04-22T18:44:31.244Z,21.47
2023-04-22T18:46:54.812Z,20.07
2023-04-22T18:49:16.620Z,20.17
2023-04-22T18:51:39.981Z,21.60
2023-04-22T18:54:03.930Z,22.60
2023-04-22T18:56:26.202Z,22.77
2023-04-22T18:58:48.228Z,22.33
2023-04-22T19:01:11.439Z,25.83
2023-04-22T19:03:33.470Z,23.30
2023-04-22T19:05:55.392Z,23.77
2023-04-22T19:08:17.349Z,24.70
2023-04-22T19:10:39.322Z,23.33
2023-04-22T19:13:01.696Z,21.43
2023-04-22T19:15:23.546Z,20.60
2023-04-22T19:17:45.586Z,20.50
2023-04-22T19:20:08.278Z,22.43
2023-04-22T19:22:30.161Z,23.00
2023-04-22T19:24:52.065Z,22.13
2023-04-22T19:27:14.799Z,22.43
2023-04-22T19:29:36.596Z,22.37
2023-04-22T19:31:59.866Z,22.30
2023-04-22T19:34:21.762Z,24.83
2023-04-22T19:36:43.561Z,24.93
2023-04-22T19:39:06.181Z,24.03
2023-04-22T19:41:27.967Z,25.97
2023-04-22T19:43:49.825Z,26.30
2023-04-22T19:46:11.891Z,25.33
2023-04-22T19:48:36.464Z,25.00
2023-04-22T19:50:59.134Z,26.08
2023-04-22T19:53:24.008Z,25.20
2023-04-22T19:55:46.931Z,26.73
2023-04-22T19:58:10.625Z,27.23
2023-04-22T20:02:55.639Z,27.03
2023-04-22T20:05:19.412Z,27.60
2023-04-22T20:07:44.313Z,27.57
2023-04-22T20:10:08.510Z,27.07
2023-04-22T20:12:31.007Z,26.35
2023-04-22T20:14:53.182Z,25.20
2023-04-22T20:17:15.835Z,31.27
2023-04-22T20:19:39.270Z,27.67
2023-04-22T20:22:04.290Z,30.20
2023-04-22T20:24:28.872Z,29.03
2023-04-22T20:29:14.355Z,26.60
2023-04-22T20:31:37.340Z,29.27
2023-04-22T20:34:00.248Z,28.47
2023-04-22T20:36:24.124Z,26.70
2023-04-22T20:38:49.528Z,26.73
2023-04-22T20:41:13.327Z,27.40
2023-04-22T20:43:35.847Z,27.67
2023-04-22T20:45:58.037Z,26.83
2023-04-22T20:48:19.824Z,27.03
2023-04-22T20:50:42.253Z,25.67
2023-04-22T20:53:04.136Z,25.27
2023-04-22T20:55:26.948Z,25.50
2023-04-22T20:57:48.730Z,23.83
2023-04-22T21:00:11.611Z,25.70
2023-04-22T21:02:35.455Z,25.53
2023-04-22T21:04:59.146Z,24.80
2023-04-22T21:07:22.110Z,25.85
2023-04-22T21:09:44.230Z,25.30
2023-04-22T21:12:06.983Z,25.93
2023-04-22T21:14:29.456Z,26.60
2023-04-22T21:17:05.560Z,25.50
2023-04-22T21:19:33.734Z,26.67
2023-04-22T21:21:57.866Z,25.63
2023-04-22T21:24:21.605Z,25.20
2023-04-22T21:26:46.197Z,24.70
2023-04-22T21:31:30.902Z,23.80
2023-04-22T21:33:53.468Z,24.47
2023-04-22T21:36:16.549Z,24.17
2023-04-22T21:38:38.413Z,26.83
2023-04-22T21:41:00.349Z,26.40
2023-04-22T21:43:22.431Z,24.57
2023-04-22T21:45:44.935Z,26.03
2023-04-22T21:48:07.183Z,24.90
2023-04-22T21:50:30.449Z,24.47
2023-04-22T21:52:52.595Z,24.43
2023-04-22T21:55:14.621Z,25.67
2023-04-22T21:57:36.368Z,24.53
2023-04-22T21:59:58.189Z,24.73
2023-04-22T22:02:20.835Z,23.77
2023-04-22T22:04:42.788Z,23.90
2023-04-22T22:07:04.770Z,24.40
2023-04-22T22:09:27.325Z,26.80
2023-04-22T22:11:48.933Z,25.80
2023-04-22T22:14:14.250Z,26.20
2023-04-22T22:16:36.013Z,26.15
2023-04-22T22:18:58.331Z,26.40
2023-04-22T22:21:20.185Z,26.10
2023-04-22T22:23:41.754Z,25.53
2023-04-22T22:26:03.496Z,25.37
2023-04-22T22:28:25.289Z,24.03
2023-04-22T22:30:46.992Z,25.30
2023-04-22T22:33:08.868Z,25.70
2023-04-22T22:35:30.584Z,27.20
2023-04-22T22:37:52.341Z,27.20
2023-04-22T22:40:14.105Z,25.97
2023-04-22T22:42:36.154Z,25.47
2023-04-22T22:44:58.230Z,26.50
2023-04-22T22:47:21.061Z,28.93
2023-04-22T22:49:42.864Z,28.27
2023-04-22T22:52:04.941Z,29.90
2023-04-22T22:54:27.911Z,27.43
2023-04-22T22:56:49.653Z,27.80
2023-04-22T22:59:11.334Z,29.47
2023-04-22T23:01:33.236Z,31.83
2023-04-22T23:03:55.320Z,32.50
2023-04-22T23:06:17.490Z,32.63
2023-04-22T23:08:39.166Z,32.53
2023-04-22T23:11:01.998Z,33.60
2023-04-22T23:13:24.149Z,33.60
2023-04-22T23:15:45.837Z,33.00
2023-04-22T23:18:09.228Z,33.23
2023-04-22T23:20:31.508Z,32.80
2023-04-22T23:22:54.305Z,34.90
2023-04-22T23:25:16.771Z,36.20
2023-04-22T23:27:38.930Z,35.13
2023-04-22T23:30:01.200Z,35.93
2023-04-22T23:32:26.563Z,36.17
2023-04-22T23:34:52.430Z,36.17
2023-04-22T23:37:15.342Z,34.87
2023-04-22T23:39:37.316Z,37.43
2023-04-22T23:41:59.055Z,33.93
2023-04-22T23:44:20.907Z,33.93
2023-04-22T23:46:42.766Z,33.20
2023-04-22T23:49:04.558Z,35.17
2023-04-22T23:51:26.510Z,32.33
2023-04-22T23:53:48.229Z,32.10
2023-04-22T23:56:11.388Z,31.30
2023-04-22T23:58:33.546Z,32.57
